createdAt,value
2022-09-02T00:01:55.951Z,85.20
2022-09-02T00:05:58.850Z,85.10
2022-09-02T00:10:01.668Z,85.80
2022-09-02T00:14:07.806Z,86.00
2022-09-02T00:18:15.369Z,85.90
2022-09-02T00:22:18.456Z,86.70
2022-09-02T00:26:21.326Z,86.30
2022-09-02T00:30:25.567Z,85.60
2022-09-02T00:34:28.354Z,86.40
2022-09-02T00:38:32.088Z,86.00
2022-09-02T00:42:35.614Z,86.00
2022-09-02T00:46:40.272Z,86.00
2022-09-02T00:50:43.116Z,84.40
2022-09-02T00:54:47.917Z,84.70
2022-09-02T00:58:51.532Z,84.20
2022-09-02T01:02:57.380Z,84.00
2022-09-02T01:07:00.224Z,83.40
2022-09-02T01:11:06.310Z,83.50
2022-09-02T01:15:10.534Z,83.50
2022-09-02T01:19:19.343Z,84.20
2022-09-02T01:23:23.793Z,83.70
2022-09-02T01:27:28.548Z,83.70
2022-09-02T01:31:31.415Z,84.00
2022-09-02T01:35:34.330Z,83.90
2022-09-02T01:39:38.851Z,85.30
2022-09-02T01:43:41.683Z,85.10
2022-09-02T01:47:44.661Z,84.70
2022-09-02T01:51:47.471Z,86.20
2022-09-02T01:55:52.016Z,85.40
2022-09-02T01:59:55.139Z,85.10
2022-09-02T02:03:57.996Z,85.70
2022-09-02T02:08:00.830Z,85.40
2022-09-02T02:12:05.615Z,85.10
2022-09-02T02:16:08.601Z,85.50
2022-09-02T02:20:12.204Z,85.00
2022-09-02T02:24:15.026Z,86.50
2022-09-02T02:28:19.230Z,85.80
2022-09-02T02:32:22.014Z,87.40
2022-09-02T02:36:24.898Z,87.30
2022-09-02T02:40:27.782Z,86.70
2022-09-02T02:44:31.976Z,89.30
2022-09-02T02:48:35.123Z,86.70
2022-09-02T02:52:38.092Z,86.70
2022-09-02T02:56:41.294Z,86.20
2022-09-02T03:00:46.278Z,86.90
2022-09-02T03:04:50.092Z,86.00
2022-09-02T03:08:53.546Z,85.80
2022-09-02T03:12:56.378Z,85.90
2022-09-02T03:17:00.738Z,86.80
2022-09-02T03:21:07.508Z,85.70
2022-09-02T03:25:11.650Z,85.30
2022-09-02T03:29:14.569Z,85.60
2022-09-02T03:33:18.716Z,86.20
2022-09-02T03:37:22.032Z,86.00
2022-09-02T03:41:25.228Z,85.50
2022-09-02T03:45:28.184Z,87.10
2022-09-02T03:49:32.329Z,87.00
2022-09-02T03:53:35.388Z,87.70
2022-09-02T03:57:38.211Z,87.50
2022-09-02T04:01:42.901Z,87.70
2022-09-02T04:05:48.594Z,88.20
2022-09-02T04:09:51.414Z,88.60
2022-09-02T04:13:54.502Z,88.50
2022-09-02T04:17:57.319Z,88.40
2022-09-02T04:22:01.515Z,89.30
2022-09-02T04:26:05.519Z,89.00
2022-09-02T04:30:09.111Z,88.50
2022-09-02T04:34:11.923Z,89.80
2022-09-02T04:38:16.099Z,90.00
2022-09-02T04:42:18.980Z,89.70
2022-09-02T04:46:28.035Z,89.50
2022-09-02T04:50:37.684Z,90.30
2022-09-02T04:54:41.870Z,88.50
2022-09-02T04:58:45.480Z,88.70
2022-09-02T05:02:48.390Z,87.70
2022-09-02T05:06:51.244Z,87.60
2022-09-02T05:10:55.673Z,87.40
2022-09-02T05:15:01.139Z,88.50
2022-09-02T05:19:04.708Z,88.60
2022-09-02T05:23:08.737Z,87.50
2022-09-02T05:27:13.060Z,89.00
2022-09-02T05:31:17.380Z,87.80
2022-09-02T05:35:20.231Z,87.20
2022-09-02T05:39:23.053Z,87.40
2022-09-02T05:43:27.283Z,87.40
2022-09-02T05:47:30.090Z,87.20
2022-09-02T05:51:33.096Z,87.70
2022-09-02T05:55:36.523Z,87.70
2022-09-02T05:59:42.197Z,87.70
2022-09-02T06:03:45.024Z,87.60
2022-09-02T06:07:47.817Z,87.80
2022-09-02T06:11:51.048Z,87.70
2022-09-02T06:15:55.280Z,89.50
2022-09-02T06:19:58.155Z,88.70
2022-09-02T06:24:01.630Z,88.90
2022-09-02T06:28:07.177Z,88.50
2022-09-02T06:32:11.671Z,88.70
2022-09-02T06:36:15.619Z,88.60
2022-09-02T06:40:19.194Z,89.30
2022-09-02T06:44:22.709Z,89.30
2022-09-02T06:48:26.885Z,88.90
2022-09-02T06:52:29.832Z,88.70
2022-09-02T06:56:32.634Z,89.30
2022-09-02T07:00:36.002Z,88.90
2022-09-02T07:04:59.067Z,89.00
2022-09-02T07:09:01.926Z,89.00
2022-09-02T07:13:04.738Z,90.00
2022-09-02T07:17:08.045Z,90.10
2022-09-02T07:21:12.330Z,90.20
2022-09-02T07:29:18.603Z,90.10
2022-09-02T07:33:21.426Z,90.50
2022-09-02T07:37:25.645Z,91.00
2022-09-02T07:41:28.542Z,91.00
2022-09-02T07:45:31.971Z,90.90
2022-09-02T08:14:18.939Z,91.60
2022-09-02T08:18:22.829Z,91.80
2022-09-02T08:22:26.054Z,92.00
2022-09-02T08:26:29.405Z,92.10
2022-09-02T08:30:34.006Z,92.20
2022-09-02T08:34:36.823Z,92.30
2022-09-02T08:38:39.619Z,92.30
2022-09-02T08:42:45.405Z,92.20
2022-09-02T08:46:51.864Z,92.30
2022-09-02T08:50:56.806Z,92.30
2022-09-02T08:55:00.133Z,92.30
2022-09-02T08:59:04.057Z,92.40
2022-09-02T09:03:16.481Z,92.30
2022-09-02T09:07:28.531Z,92.10
2022-09-02T09:11:35.068Z,92.00
2022-09-02T09:15:42.194Z,91.70
2022-09-02T09:19:50.068Z,91.70
2022-09-02T09:23:54.086Z,91.40
2022-09-02T09:27:57.017Z,91.70
2022-09-02T09:32:01.211Z,91.50
2022-09-02T09:36:05.811Z,91.50
2022-09-02T09:40:29.160Z,91.30
2022-09-02T09:44:36.921Z,90.80
2022-09-02T09:48:49.702Z,90.90
2022-09-02T09:52:53.841Z,90.60
2022-09-02T09:56:56.920Z,90.60
2022-09-02T10:01:00.624Z,90.60
2022-09-02T10:05:11.635Z,90.40
2022-09-02T10:09:32.820Z,90.10
2022-09-02T10:13:36.808Z,89.60
2022-09-02T10:17:44.852Z,88.10
2022-09-02T10:21:59.343Z,88.30
2022-09-02T10:26:08.349Z,88.00
2022-09-02T10:30:15.599Z,89.00
2022-09-02T10:34:22.775Z,86.70
2022-09-02T10:38:33.488Z,87.20
2022-09-02T10:42:40.997Z,85.60
2022-09-02T10:46:47.066Z,86.90
2022-09-02T10:50:53.364Z,86.00
2022-09-02T10:55:01.107Z,85.80
2022-09-02T10:59:08.317Z,83.30
2022-09-02T11:03:13.934Z,82.40
2022-09-02T11:07:19.707Z,83.30
2022-09-02T11:11:26.106Z,84.60
2022-09-02T11:15:36.086Z,81.30
2022-09-02T11:19:41.321Z,84.00
2022-09-02T11:23:45.872Z,82.90
2022-09-02T11:27:52.520Z,81.90
2022-09-02T11:32:02.626Z,82.30
2022-09-02T11:36:05.681Z,81.70
2022-09-02T11:40:33.215Z,81.40
2022-09-02T11:44:52.448Z,81.10
2022-09-02T11:49:05.971Z,81.70
2022-09-02T11:53:16.934Z,82.50
2022-09-02T11:57:23.262Z,81.70
2022-09-02T12:01:31.055Z,82.70
2022-09-02T12:06:06.193Z,82.00
2022-09-02T12:10:09.174Z,80.40
2022-09-02T12:14:13.701Z,79.70
2022-09-02T12:18:30.035Z,80.20
2022-09-02T12:22:39.534Z,79.20
2022-09-02T12:27:00.817Z,79.60
2022-09-02T12:31:15.126Z,77.00
2022-09-02T12:35:31.421Z,78.80
2022-09-02T12:39:53.269Z,78.90
2022-09-02T12:43:59.286Z,78.30
2022-09-02T12:48:08.102Z,77.80
2022-09-02T12:52:12.038Z,79.80
2022-09-02T12:56:21.528Z,80.50
2022-09-02T13:00:32.620Z,79.60
2022-09-02T13:04:39.891Z,80.30
2022-09-02T13:09:10.641Z,78.70
2022-09-02T13:13:20.912Z,76.20
2022-09-02T13:17:42.516Z,76.40
2022-09-02T13:22:00.884Z,77.60
2022-09-02T13:26:22.899Z,77.60
2022-09-02T13:30:42.612Z,76.50
2022-09-02T13:34:46.544Z,77.70
2022-09-02T13:38:49.440Z,78.30
2022-09-02T13:42:52.830Z,76.20
2022-09-02T13:47:02.685Z,76.30
2022-09-02T13:51:10.191Z,77.00
2022-09-02T13:55:14.932Z,77.50
2022-09-02T13:59:31.629Z,76.80
2022-09-02T14:03:36.429Z,76.50
2022-09-02T14:07:40.959Z,76.40
2022-09-02T14:11:45.761Z,76.50
2022-09-02T14:15:48.766Z,76.20
2022-09-02T14:19:53.751Z,75.10
2022-09-02T14:23:56.592Z,74.80
2022-09-02T14:28:00.617Z,75.30
2022-09-02T14:32:07.253Z,75.60
2022-09-02T14:36:13.545Z,76.40
2022-09-02T14:40:17.608Z,74.80
2022-09-02T14:44:23.501Z,74.60
2022-09-02T14:48:27.362Z,75.10
2022-09-02T14:52:33.362Z,74.60
2022-09-02T14:56:53.910Z,74.90
2022-09-02T15:00:57.684Z,74.60
2022-09-02T15:05:01.323Z,74.50
2022-09-02T15:09:05.817Z,74.40
2022-09-02T15:13:11.404Z,74.30
2022-09-02T15:17:16.056Z,74.90
2022-09-02T15:21:19.999Z,75.10
2022-09-02T15:25:24.932Z,75.60
2022-09-02T15:29:29.113Z,75.80
2022-09-02T15:33:32.116Z,75.20
2022-09-02T15:37:37.662Z,75.30
2022-09-02T15:41:45.217Z,75.30
2022-09-02T15:45:48.433Z,75.60
2022-09-02T15:49:53.107Z,75.90
2022-09-02T15:53:56.403Z,76.20
2022-09-02T15:58:00.582Z,76.80
2022-09-02T16:02:03.543Z,77.40
2022-09-02T16:06:07.923Z,78.40
2022-09-02T16:10:11.602Z,79.10
2022-09-02T16:14:20.516Z,78.10
2022-09-02T16:18:24.047Z,76.00
2022-09-02T16:22:26.860Z,74.40
2022-09-02T16:26:30.582Z,74.10
2022-09-02T16:30:34.856Z,74.80
2022-09-02T16:34:38.352Z,74.40
2022-09-02T16:38:41.175Z,73.80
2022-09-02T16:42:43.981Z,73.40
2022-09-02T16:46:48.890Z,74.00
2022-09-02T16:50:52.372Z,74.60
2022-09-02T16:54:55.181Z,74.60
2022-09-02T16:59:00.636Z,74.50
2022-09-02T17:03:04.868Z,74.40
2022-09-02T17:07:08.085Z,73.80
2022-09-02T17:11:11.767Z,74.10
2022-09-02T17:15:14.599Z,74.40
2022-09-02T17:19:22.552Z,74.40
2022-09-02T17:23:25.598Z,74.50
2022-09-02T17:27:28.481Z,74.50
2022-09-02T17:31:31.925Z,74.00
2022-09-02T17:39:39.450Z,74.20
2022-09-02T17:43:42.280Z,74.70
2022-09-02T17:47:45.099Z,74.70
2022-09-02T17:51:48.433Z,74.70
2022-09-02T17:55:55.913Z,74.80
2022-09-02T18:00:12.351Z,75.00
2022-09-02T18:04:21.740Z,75.20
2022-09-02T18:08:29.265Z,75.20
2022-09-02T18:12:33.528Z,75.30
2022-09-02T18:16:42.005Z,75.50
2022-09-02T18:20:45.394Z,75.40
2022-09-02T18:24:56.436Z,75.50
2022-09-02T18:29:09.509Z,75.60
2022-09-02T18:33:20.231Z,75.60
2022-09-02T18:37:30.254Z,75.70
2022-09-02T18:41:40.098Z,75.80
2022-09-02T18:45:47.871Z,75.70
2022-09-02T18:49:52.625Z,75.70
2022-09-02T18:53:57.742Z,75.80
2022-09-02T18:58:02.819Z,75.90
2022-09-02T19:02:13.904Z,76.00
2022-09-02T19:06:18.366Z,76.10
2022-09-02T19:10:21.490Z,76.20
2022-09-02T19:14:27.516Z,76.90
2022-09-02T19:18:31.692Z,76.20
2022-09-02T19:22:35.572Z,76.20
2022-09-02T19:26:38.714Z,76.30
2022-09-02T19:30:41.727Z,76.40
2022-09-02T19:34:46.256Z,76.40
2022-09-02T19:38:49.059Z,76.30
2022-09-02T19:42:54.269Z,76.30
2022-09-02T19:47:49.802Z,76.40
2022-09-02T19:51:26.587Z,76.60
2022-09-02T19:55:33.858Z,76.60
2022-09-02T19:59:36.804Z,76.80
2022-09-02T20:03:39.628Z,76.90
2022-09-02T20:07:43.807Z,77.10
2022-09-02T20:11:46.691Z,77.10
2022-09-02T20:15:49.852Z,77.10
2022-09-02T20:19:55.729Z,77.30
2022-09-02T20:24:04.441Z,77.40
2022-09-02T20:28:12.734Z,77.60
2022-09-02T20:32:19.999Z,78.10
2022-09-02T20:36:26.192Z,77.60
2022-09-02T20:40:35.764Z,77.80
2022-09-02T20:44:43.640Z,77.90
2022-09-02T20:48:52.423Z,78.10
2022-09-02T20:53:02.121Z,78.00
2022-09-02T20:57:14.405Z,77.90
2022-09-02T21:01:21.633Z,78.00
2022-09-02T21:05:27.293Z,78.50
2022-09-02T21:09:36.086Z,78.10
2022-09-02T21:13:44.343Z,78.10
2022-09-02T21:17:50.222Z,78.30
2022-09-02T21:21:54.757Z,78.50
2022-09-02T21:25:58.623Z,78.50
2022-09-02T21:30:04.165Z,78.80
2022-09-02T21:34:08.981Z,78.70
2022-09-02T21:38:15.358Z,79.40
2022-09-02T21:42:21.108Z,78.80
2022-09-02T21:46:29.985Z,78.90
2022-09-02T21:50:38.984Z,79.10
2022-09-02T21:54:47.716Z,79.00
2022-09-02T21:58:59.550Z,79.40
2022-09-02T22:03:14.009Z,79.30
2022-09-02T22:07:20.179Z,79.60
2022-09-02T22:11:27.633Z,79.50
2022-09-02T22:15:35.171Z,79.40
2022-09-02T22:19:40.372Z,79.50
2022-09-02T22:23:44.226Z,79.90
2022-09-02T22:27:50.681Z,79.50
2022-09-02T22:31:55.159Z,79.70
2022-09-02T22:36:01.737Z,79.70
2022-09-02T22:40:06.483Z,80.20
2022-09-02T22:44:10.734Z,80.20
2022-09-02T22:48:34.697Z,79.90
2022-09-02T22:52:54.591Z,80.00
2022-09-02T22:57:03.050Z,79.80
2022-09-02T23:01:12.711Z,80.70
2022-09-02T23:05:36.791Z,79.80
2022-09-02T23:09:41.086Z,80.10
2022-09-02T23:13:53.333Z,80.00
2022-09-02T23:18:03.399Z,80.20
2022-09-02T23:22:09.404Z,79.80
2022-09-02T23:26:20.839Z,79.70
2022-09-02T23:30:23.663Z,79.60
2022-09-02T23:34:32.694Z,79.70
2022-09-02T23:38:49.543Z,79.60
2022-09-02T23:42:53.757Z,79.60
2022-09-02T23:47:01.922Z,79.50
2022-09-02T23:51:13.217Z,79.60
2022-09-02T23:55:20.900Z,79.50
2022-09-02T23:59:31.325Z,79.70
